Los Coches (243) Station Data

Red Flag Warning: No
Fire Weather Zone: 250
SDGE Region: Eastern
Lat/Lon: 32.852/-116.895

Observations

Time Wind Speed/Gust Temp(F) RH Fuel Moist Fuel Temp(F) Dewpt(F) Tmax(F) Tmin(F) Accum Precip 10-min Precip SL Press(mb)
6/27 5:10pm 210 4 G 9 89° 14% - - 33° 96.1° 69.5° - - 906.0
6/27 5:00pm 200 4 G 9 89° 14% - - 33° 96.1° 69.5° - - 906.0
6/27 4:50pm 211 6 G 12 89° 15% - - 36° 96.1° 69.5° - - 907.0
6/27 4:40pm 218 5 G 10 90° 14% - - 34° 96.1° 69.5° - - 906.0
6/27 4:30pm 222 6 G 11 90° 15% - - 35° 96.1° 69.5° - - 906.0
6/27 4:20pm 222 4 G 8 90° 16% - - 37° 96.1° 69.5° - - 907.0
6/27 4:10pm 204 4 G 10 90° 18% - - 41° 96.1° 69.5° - - 908.0
6/27 4:00pm 232 4 G 11 91° 17% - - 40° 96.1° 69.5° - - 907.0
6/27 3:50pm 260 5 G 13 91° 17% - - 40° 96.1° 69.5° - - 907.0
6/27 3:40pm 266 6 G 10 91° 18% - - 42° 96.1° 69.5° - - 908.0
6/27 3:30pm 229 4 G 10 91° 20% - - 44° 96.1° 69.5° - - 909.0
6/27 3:20pm 214 5 G 12 90° 22% - - 46° 96.1° 69.5° - - 911.0
6/27 3:10pm 221 6 G 12 90° 21% - - 46° 96.1° 69.5° - - 910.0
6/27 3:00pm 232 7 G 14 92° 18% - - 42° 96.1° 69.5° - - 908.0
6/27 2:50pm 251 7 G 14 91° 18% - - 41° 96.1° 69.5° - - 908.0
6/27 2:40pm 204 5 G 11 91° 19% - - 43° 96.1° 69.5° - - 909.0
6/27 2:30pm 212 6 G 13 91° 17% - - 41° 96.1° 69.5° - - 908.0
6/27 2:20pm 214 6 G 12 91° 18% - - 41° 96.1° 69.5° - - 908.0
6/27 2:10pm 221 7 G 14 91° 18% - - 41° 96.1° 69.5° - - 908.0
6/27 2:00pm 231 8 G 16 91° 19% - - 43° 96.1° 69.5° - - 908.0
6/27 1:50pm 211 8 G 15 91° 19% - - 43° 96.1° 69.5° - - 908.0
6/27 1:40pm 217 7 G 15 92° 19% - - 44° 96.1° 69.5° - - 909.0
6/27 1:30pm 213 8 G 16 92° 21% - - 46° 96.1° 69.5° - - 910.0
6/27 1:20pm 225 7 G 14 92° 21% - - 46° 96.1° 69.5° - - 910.0
6/27 1:10pm 225 8 G 17 93° 20% - - 46° 96.1° 69.5° - - 909.0
6/27 1:00pm 213 6 G 14 93° 18% - - 44° 96.1° 69.5° - - 908.0
6/27 12:50pm 208 7 G 15 94° 15% - - 39° 96.1° 69.5° - - 906.0
6/27 12:40pm 207 5 G 12 94° 13% - - 36° 96.1° 69.5° - - 905.0
6/27 12:30pm 274 7 G 13 95° 12% - - 34° 96.1° 69.5° - - 904.0
6/27 12:20pm 273 4 G 9 95° 11% - - 32° 96° 69.5° - - 904.0
6/27 12:10pm 239 4 G 11 95° 10% - - 30° 95.9° 69.5° - - 903.0
6/27 12:00pm 300 5 G 11 95° 10% - - 31° 95.8° 69.5° - - 903.0
6/27 11:50am 306 5 G 9 94° 11% - - 31° 94.9° 69.5° - - 903.0
6/27 11:40am 230 4 G 10 94° 11% - - 30° 94.9° 69.5° - - 903.0
6/27 11:30am 239 4 G 8 94° 10% - - 29° 94.7° 69.5° - - 903.0
6/27 11:20am 218 3 G 8 93° 11% - - 32° 94.7° 69.5° - - 903.0
6/27 11:10am 217 4 G 8 92° 12% - - 32° 92.5° 69.5° - - 904.0
6/27 11:00am 227 4 G 9 91° 15% - - 36° 92.3° 69.5° - - 905.0
6/27 10:50am 233 5 G 10 90° 15% - - 36° 90.9° 69.5° - - 905.0
6/27 10:40am 246 5 G 9 89° 14% - - 35° 90.4° 69.5° - - 905.0
6/27 10:30am 197 3 G 8 90° 12% - - 31° 90.4° 69.5° - - 904.0
6/27 10:20am 203 3 G 7 89° 12% - - 30° 90° 69.5° - - 904.0
6/27 10:10am 196 4 G 9 88° 12% - - 30° 90° 69.5° - - 903.0
6/27 10:00am 227 3 G 7 89° 12% - - 31° 90° 69.5° - - 903.0
6/27 9:50am 302 3 G 7 88° 13% - - 31° 88.8° 69.5° - - 904.0
6/27 9:40am 305 3 G 5 87° 14% - - 32° 88° 69.5° - - 904.0
6/27 9:30am 283 2 G 5 86° 14% - - 32° 87.1° 69.5° - - 904.0
6/27 9:20am 293 2 G 4 85° 16% - - 34° 85.9° 69.5° - - 905.0
6/27 9:10am 1 2 G 4 85° 17% - - 35° 85.6° 69.5° - - 905.0
6/27 9:00am 358 2 G 4 84° 18% - - 35° 84.6° 69.5° - - 906.0
6/27 8:50am 11 2 G 4 82° 18% - - 35° 82.9° 69.5° - - 906.0
6/27 8:40am 358 2 G 4 81° 19% - - 35° 81.8° 69.5° - - 906.0
6/27 8:30am 6 1 G 3 80° 19% - - 35° 80.9° 69.5° - - 906.0
6/27 8:20am 13 2 G 4 79° 20% - - 35° 80.4° 69.5° - - 906.0
6/27 8:10am 270 1 G 3 77° 22% - - 35° 77.9° 69.5° - - 908.0
6/27 8:00am 102 1 G 3 77° 22% - - 35° 77.3° 69.5° - - 907.0
6/27 7:50am 21 1 G 3 76° 21% - - 33° 77.3° 69.5° - - 907.0
6/27 7:40am 24 3 G 5 76° 20% - - 32° 77.3° 69.5° - - 906.0
6/27 7:30am 35 2 G 4 76° 21% - - 33° 77.3° 69.5° - - 907.0
6/27 7:20am 38 2 G 3 75° 20% - - 31° 77.3° 69.5° - - 906.0
6/27 7:10am 53 2 G 4 74° 21% - - 31° 77.3° 69.5° - - 906.0
6/27 7:00am 61 2 G 5 72° 24% - - 33° 77.3° 69.5° - - 908.0
6/27 6:50am 28 4 G 6 72° 22% - - 32° 77.3° 69.5° - - 907.0
6/27 6:40am 52 3 G 4 72° 20% - - 28° 77.3° 69.5° - - 905.0
6/27 6:30am 108 2 G 4 70° 21% - - 28° 77.3° 69.5° - - 906.0
6/27 6:20am 73 1 G 2 70° 27% - - 34° 77.3° 69.5° - - 909.0
6/27 6:10am 19 2 G 4 70° 27% - - 35° 77.3° 69.5° - - 910.0
6/27 6:00am 41 3 G 4 70° 22% - - 29° 77.3° 69.5° - - 907.0
6/27 5:50am 179 1 G 3 70° 21% - - 29° 77.3° 69.5° - - 907.0
6/27 5:40am 65 2 G 4 71° 21% - - 29° 77.3° 70.2° - - 906.0
6/27 5:30am 50 3 G 3 71° 20% - - 28° 77.3° 70.2° - - 906.0
6/27 5:20am 88 2 G 4 71° 19% - - 27° 77.3° 70.5° - - 905.0
6/27 5:10am 89 2 G 3 71° 19% - - 27° 77.3° 70.5° - - 905.0
6/27 5:00am 69 2 G 3 71° 21% - - 29° 77.3° 70.5° - - 906.0
6/27 4:50am 84 2 G 3 72° 20% - - 29° 77.3° 70.8° - - 906.0
6/27 4:40am 73 1 G 2 71° 21% - - 29° 77.3° 70.8° - - 906.0
6/27 4:30am 117 1 G 2 72° 20% - - 29° 77.3° 70.8° - - 906.0
6/27 4:20am 91 1 G 2 72° 20% - - 28° 77.3° 70.8° - - 906.0
6/27 4:10am 158 2 G 4 71° 21% - - 29° 77.3° 70.8° - - 906.0
6/27 4:00am 88 2 G 4 72° 21% - - 30° 77.3° 71.1° - - 906.0
6/27 3:50am 48 2 G 4 71° 23% - - 32° 77.3° 71.1° - - 908.0
6/27 3:40am 52 3 G 6 72° 24% - - 33° 77.3° 71.3° - - 908.0
6/27 3:30am 56 2 G 3 72° 21% - - 31° 77.3° 71.7° - - 907.0
6/27 3:20am 61 2 G 4 73° 20% - - 29° 77.3° 71.7° - - 906.0
6/27 3:10am 119 3 G 5 73° 21% - - 30° 77.3° 71.7° - - 906.0
6/27 3:00am 79 1 G 3 73° 21% - - 31° 77.3° 72° - - 907.0
6/27 2:50am 47 2 G 3 74° 20% - - 30° 77.3° 72.6° - - 906.0
6/27 2:40am 118 1 G 2 73° 21% - - 31° 77.3° 72.6° - - 907.0
6/27 2:30am 79 1 G 2 73° 23% - - 33° 77.3° 72.7° - - 908.0
6/27 2:20am 28 2 G 3 73° 22% - - 32° 77.3° 72.7° - - 907.0
6/27 2:10am 51 3 G 4 74° 20% - - 31° 77.3° 73.2° - - 906.0
6/27 2:00am 65 2 G 4 74° 21% - - 31° 77.3° 73.4° - - 907.0
6/27 1:50am 64 3 G 5 74° 21% - - 32° 77.3° 73.5° - - 907.0
6/27 1:40am 142 1 G 2 75° 22% - - 34° 77.3° 73.7° - - 907.0
6/27 1:30am 132 2 G 4 75° 21% - - 33° 77.3° 73.7° - - 907.0
6/27 1:20am 108 2 G 4 74° 25% - - 36° 77.3° 73.7° - - 909.0
6/27 1:10am 13 2 G 3 75° 27% - - 38° 77.3° 73.8° - - 910.0
6/27 1:00am 21 3 G 5 75° 24% - - 36° 77.3° 74.7° - - 909.0
6/27 12:50am 11 3 G 4 76° 25% - - 37° 77.3° 74.7° - - 909.0
6/27 12:40am 53 2 G 4 76° 22% - - 35° 77.3° 76.1° - - 907.0
6/27 12:30am 78 5 G 7 77° 22% - - 35° 77.3° 76.1° - - 908.0
6/27 12:20am 73 5 G 7 77° 22% - - 35° 77.3° 76.1° - - 908.0
6/27 12:10am 64 4 G 7 77° 23% - - 36° 77.3° 76.4° - - 908.0
6/27 12:00am 55 3 G 5 77° 27% - - 40° 101.2° 70.3° - - 910.0
6/26 11:50pm 63 4 G 6 77° 29% - - 42° 101.2° 70.3° - - 911.0
6/26 11:40pm 56 5 G 6 75° 32% - - 43° 101.2° 70.3° - - 913.0
6/26 11:30pm 44 4 G 7 76° 33% - - 45° 101.2° 70.3° - - 914.0
6/26 11:20pm 88 5 G 8 79° 27% - - 42° 101.2° 70.3° - - 911.0
6/26 11:10pm 107 7 G 8 79° 28% - - 43° 101.2° 70.3° - - 911.0
6/26 11:00pm 123 6 G 7 79° 29% - - 44° 101.2° 70.3° - - 912.0
6/26 10:50pm 114 4 G 7 78° 29% - - 43° 101.2° 70.3° - - 912.0
6/26 10:40pm 124 2 G 3 77° 31% - - 44° 101.2° 70.3° - - 913.0
6/26 10:30pm 53 1 G 2 77° 32% - - 45° 101.2° 70.3° - - 914.0
6/26 10:20pm 339 1 G 2 78° 30% - - 44° 101.2° 70.3° - - 913.0
6/26 10:10pm 331 2 G 3 79° 29% - - 44° 101.2° 70.3° - - 913.0
6/26 10:00pm 333 2 G 4 79° 28% - - 44° 101.2° 70.3° - - 912.0
6/26 9:50pm 349 3 G 4 80° 27% - - 43° 101.2° 70.3° - - 912.0
6/26 9:40pm 37 2 G 3 80° 27% - - 43° 101.2° 70.3° - - 912.0
6/26 9:30pm 53 1 G 3 81° 28% - - 45° 101.2° 70.3° - - 913.0
6/26 9:20pm 73 1 G 2 81° 26% - - 44° 101.2° 70.3° - - 912.0
6/26 9:10pm 22 1 G 2 82° 25% - - 43° 101.2° 70.3° - - 912.0
6/26 9:00pm 325 2 G 4 82° 25% - - 42° 101.2° 70.3° - - 912.0
6/26 8:50pm 46 1 G 3 83° 25% - - 43° 101.2° 70.3° - - 912.0
6/26 8:40pm 325 2 G 4 84° 22% - - 41° 101.2° 70.3° - - 910.0
6/26 8:30pm 291 3 G 4 85° 21% - - 40° 101.2° 70.3° - - 910.0
6/26 8:20pm 320 2 G 4 85° 20% - - 39° 101.2° 70.3° - - 909.0
6/26 8:10pm 317 2 G 5 86° 19% - - 38° 101.2° 70.3° - - 909.0
6/26 8:00pm 234 4 G 6 86° 18% - - 38° 101.2° 70.3° - - 909.0
6/26 7:50pm 220 3 G 6 87° 17% - - 38° 101.2° 70.3° - - 908.0
6/26 7:40pm 213 3 G 6 88° 16% - - 36° 101.2° 70.3° - - 908.0
6/26 7:30pm 226 4 G 8 89° 15% - - 35° 101.2° 70.3° - - 907.0
6/26 7:20pm 230 4 G 9 89° 15% - - 35° 101.2° 70.3° - - 907.0
6/26 7:10pm 232 5 G 10 90° 15% - - 36° 101.2° 70.3° - - 907.0
6/26 7:00pm 235 5 G 9 90° 14% - - 35° 101.2° 70.3° - - 907.0
6/26 6:50pm 231 5 G 10 91° 14% - - 36° 101.2° 70.3° - - 907.0
6/26 6:40pm 236 6 G 11 92° 14% - - 36° 101.2° 70.3° - - 907.0
6/26 6:30pm 246 7 G 13 92° 13% - - 35° 101.2° 70.3° - - 906.0
6/26 6:20pm 250 7 G 12 93° 13% - - 34° 101.2° 70.3° - - 906.0
6/26 6:10pm 258 8 G 11 94° 13% - - 35° 101.2° 70.3° - - 906.0
6/26 6:00pm 254 7 G 13 94° 13% - - 35° 101.2° 70.3° - - 906.0
6/26 5:50pm 256 8 G 12 94° 13% - - 35° 101.2° 70.3° - - 906.0
6/26 5:40pm 267 8 G 12 95° 12% - - 36° 101.2° 70.3° - - 906.0
6/26 5:30pm 256 7 G 13 96° 12% - - 35° 101.2° 70.3° - - 905.0
6/26 5:20pm 255 9 G 14 96° 11% - - 33° 101.2° 70.3° - - 905.0
6/26 5:10pm 252 8 G 18 98° 9% - - 31° 101.2° 70.3° - - 904.0
6/26 5:00pm 258 9 G 14 98° 8% - - 28° 101.2° 70.3° - - 903.0
6/26 4:50pm 268 9 G 15 98° 8% - - 27° 101.2° 70.3° - - 903.0
6/26 4:40pm 282 10 G 14 98° 8% - - 28° 101.2° 70.3° - - 903.0
6/26 4:30pm 272 10 G 14 99° 9% - - 30° 101.2° 70.3° - - 903.0
6/26 4:20pm 277 10 G 15 100° 8% - - 28° 101.2° 70.3° - - 902.0
6/26 4:10pm 296 9 G 15 100° 8% - - 28° 101.2° 70.3° - - 902.0
6/26 4:00pm 296 9 G 15 100° 8% - - 28° 101.2° 70.3° - - 902.0
6/26 3:50pm 297 9 G 16 100° 9% - - 30° 101.2° 70.3° - - 902.0
6/26 3:40pm 297 9 G 15 100° 9% - - 31° 100.9° 70.3° - - 902.0
6/26 3:30pm 288 8 G 14 100° 11% - - 35° 100.9° 70.3° - - 903.0
6/26 3:20pm 254 8 G 15 99° 15% - - 43° 100.5° 70.3° - - 905.0
6/26 3:10pm 252 8 G 14 99° 15% - - 43° 100.5° 70.3° - - 905.0
6/26 3:00pm 252 8 G 14 99° 16% - - 44° 99.8° 70.3° - - 905.0
6/26 2:50pm 258 7 G 13 99° 15% - - 44° 99.6° 70.3° - - 905.0
6/26 2:40pm 256 8 G 15 98° 16% - - 44° 99.1° 70.3° - - 905.0
6/26 2:30pm 254 7 G 14 98° 16% - - 44° 99.1° 70.3° - - 905.0
6/26 2:20pm 240 6 G 12 98° 15% - - 42° 99.1° 70.3° - - 904.0
6/26 2:10pm 254 7 G 12 98° 16% - - 43° 98.7° 70.3° - - 904.0
6/26 2:00pm 259 6 G 12 97° 16% - - 43° 98.7° 70.3° - - 904.0
6/26 1:50pm 252 6 G 14 96° 18% - - 46° 97° 70.3° - - 905.0
6/26 1:40pm 260 5 G 11 96° 19% - - 47° 97° 70.3° - - 905.0
6/26 1:30pm 248 6 G 12 96° 20% - - 48° 96.7° 70.3° - - 905.0
6/26 1:20pm 257 5 G 10 96° 19% - - 47° 96.7° 70.3° - - 905.0
6/26 1:10pm 217 4 G 12 95° 20% - - 47° 96.7° 70.3° - - 905.0
6/26 1:00pm 226 4 G 8 95° 20% - - 47° 95.4° 70.3° - - 905.0
6/26 12:50pm 198 4 G 10 94° 21% - - 48° 94.7° 70.3° - - 905.0
6/26 12:40pm 195 4 G 9 94° 22% - - 49° 94.7° 70.3° - - 905.0
6/26 12:30pm 218 3 G 8 93° 23% - - 50° 93.9° 70.3° - - 906.0
6/26 12:20pm 223 4 G 9 94° 23% - - 50° 93.9° 70.3° - - 906.0
6/26 12:10pm 230 4 G 9 93° 24% - - 50° 93.5° 70.3° - - 906.0
6/26 12:00pm 190 4 G 11 92° 24% - - 50° 93° 70.3° - - 906.0
6/26 11:50am 214 5 G 9 91° 24% - - 49° 92.5° 70.3° - - 906.0
6/26 11:40am 204 4 G 10 91° 25% - - 50° 92.4° 70.3° - - 906.0
6/26 11:30am 196 4 G 9 92° 25% - - 51° 92.4° 70.3° - - 906.0
6/26 11:20am 224 5 G 9 92° 25% - - 50° 92.4° 70.3° - - 905.0
6/26 11:10am 192 4 G 9 91° 26% - - 51° 92.4° 70.3° - - 906.0
6/26 11:00am 204 4 G 9 92° 24% - - 50° 92.4° 70.3° - - 905.0
6/26 10:50am 228 3 G 7 92° 23% - - 48° 92.4° 70.3° - - 904.0
6/26 10:40am 244 4 G 6 91° 22% - - 47° 91.4° 70.3° - - 903.0
6/26 10:30am 219 3 G 8 91° 22% - - 47° 91.1° 70.3° - - 903.0
6/26 10:20am 220 2 G 6 90° 23% - - 47° 90.7° 70.3° - - 903.0
6/26 10:10am 250 5 G 10 88° 24% - - 47° 88.7° 70.3° - - 903.0
6/26 10:00am 255 5 G 9 88° 25% - - 47° 88.4° 70.3° - - 903.0
6/26 9:50am 261 5 G 8 88° 25% - - 48° 88.3° 70.3° - - 903.0
6/26 9:40am 294 3 G 7 87° 26% - - 48° 87.7° 70.3° - - 903.0
6/26 9:30am 303 3 G 6 86° 26% - - 48° 86.8° 70.3° - - 903.0
6/26 9:20am 269 2 G 4 86° 26% - - 47° 86.6° 70.3° - - 902.0
6/26 9:10am 258 2 G 4 86° 24% - - 45° 86.5° 70.3° - - 901.0
6/26 9:00am 334 1 G 4 86° 25% - - 46° 86.4° 70.3° - - 901.0
6/26 8:50am 30 1 G 2 85° 26% - - 46° 86° 70.3° - - 901.0
6/26 8:40am 142 1 G 2 83° 28% - - 47° 83.9° 70.3° - - 902.0
6/26 8:30am 160 1 G 2 82° 30% - - 48° 82.9° 70.3° - - 903.0
6/26 8:20am 17 2 G 3 81° 32% - - 48° 81.7° 70.3° - - 904.0
6/26 8:10am 3 1 G 3 79° 33% - - 47° 80.2° 70.3° - - 904.0
6/26 8:00am 185 1 G 2 76° 35% - - 47° 78.1° 70.3° - - 905.0
6/26 7:50am 161 2 G 3 76° 36% - - 47° 78.1° 70.3° - - 906.0
6/26 7:40am 107 1 G 4 77° 35% - - 47° 78.1° 70.3° - - 904.0
6/26 7:30am 91 1 G 1 75° 38% - - 48° 75.7° 70.3° - - 906.0
6/26 7:20am 120 1 G 1 74° 38% - - 47° 75.5° 70.3° - - 906.0
6/26 7:10am 122 1 G 2 73° 41% - - 48° 75.5° 70.3° - - 907.0
6/26 7:00am 8 2 G 4 74° 40% - - 48° 75.5° 70.3° - - 907.0
6/26 6:50am 52 2 G 4 74° 34% - - 44° 75.5° 70.3° - - 903.0
6/26 6:40am 73 1 G 3 72° 48% - - 51° 75.5° 70.3° - - 911.0
6/26 6:30am 22 3 G 4 72° 45% - - 50° 75.5° 70.3° - - 910.0
6/26 6:20am 63 2 G 2 73° 33% - - 43° 75.5° 70.3° - - 903.0
6/26 6:10am 108 1 G 2 73° 33% - - 42° 75.5° 70.3° - - 903.0
6/26 6:00am 77 1 G 2 73° 34% - - 43° 75.5° 70.3° - - 903.0